sensor_id;sensor_type;location;lat;lon;timestamp;P1;durP1;ratioP1;P2;durP2;ratioP2
19846;SDS011;10084;50.518;8.588;2023-08-31T00:02:10;0.77;;;0.73;;
19846;SDS011;10084;50.518;8.588;2023-08-31T00:04:36;1.33;;;0.97;;
19846;SDS011;10084;50.518;8.588;2023-08-31T00:07:02;0.97;;;0.83;;
19846;SDS011;10084;50.518;8.588;2023-08-31T00:09:28;0.87;;;0.70;;
19846;SDS011;10084;50.518;8.588;2023-08-31T00:11:54;0.97;;;0.80;;
19846;SDS011;10084;50.518;8.588;2023-08-31T00:14:22;0.80;;;0.80;;
19846;SDS011;10084;50.518;8.588;2023-08-31T00:16:48;1.90;;;0.60;;
19846;SDS011;10084;50.518;8.588;2023-08-31T00:19:15;0.63;;;0.60;;
19846;SDS011;10084;50.518;8.588;2023-08-31T00:21:41;1.63;;;0.70;;
19846;SDS011;10084;50.518;8.588;2023-08-31T00:24:07;0.87;;;0.73;;
19846;SDS011;10084;50.518;8.588;2023-08-31T00:26:34;0.50;;;0.50;;
19846;SDS011;10084;50.518;8.588;2023-08-31T00:29:06;0.90;;;0.90;;
19846;SDS011;10084;50.518;8.588;2023-08-31T00:31:37;5.63;;;1.00;;
19846;SDS011;10084;50.518;8.588;2023-08-31T00:34:03;0.70;;;0.63;;
19846;SDS011;10084;50.518;8.588;2023-08-31T00:36:32;5.90;;;1.13;;
19846;SDS011;10084;50.518;8.588;2023-08-31T00:39:02;0.57;;;0.57;;
19846;SDS011;10084;50.518;8.588;2023-08-31T00:41:31;0.70;;;0.70;;
19846;SDS011;10084;50.518;8.588;2023-08-31T00:43:57;4.20;;;0.80;;
19846;SDS011;10084;50.518;8.588;2023-08-31T00:46:23;0.57;;;0.50;;
19846;SDS011;10084;50.518;8.588;2023-08-31T00:48:49;1.00;;;0.90;;
19846;SDS011;10084;50.518;8.588;2023-08-31T00:51:15;1.10;;;0.83;;
19846;SDS011;10084;50.518;8.588;2023-08-31T00:53:42;1.17;;;0.60;;
19846;SDS011;10084;50.518;8.588;2023-08-31T00:56:08;1.30;;;1.20;;
19846;SDS011;10084;50.518;8.588;2023-08-31T00:58:34;0.50;;;0.50;;
19846;SDS011;10084;50.518;8.588;2023-08-31T01:03:58;0.87;;;0.87;;
19846;SDS011;10084;50.518;8.588;2023-08-31T01:15:41;0.73;;;0.70;;
19846;SDS011;10084;50.518;8.588;2023-08-31T01:18:11;0.97;;;0.80;;
19846;SDS011;10084;50.518;8.588;2023-08-31T01:20:46;1.20;;;0.90;;
19846;SDS011;10084;50.518;8.588;2023-08-31T01:23:20;0.83;;;0.73;;
19846;SDS011;10084;50.518;8.588;2023-08-31T01:25:53;0.73;;;0.60;;
19846;SDS011;10084;50.518;8.588;2023-08-31T01:28:21;0.90;;;0.80;;
19846;SDS011;10084;50.518;8.588;2023-08-31T01:30:47;0.90;;;0.53;;
19846;SDS011;10084;50.518;8.588;2023-08-31T01:33:13;1.10;;;0.80;;
19846;SDS011;10084;50.518;8.588;2023-08-31T01:35:46;0.77;;;0.70;;
19846;SDS011;10084;50.518;8.588;2023-08-31T01:38:18;1.27;;;1.10;;
19846;SDS011;10084;50.518;8.588;2023-08-31T01:40:53;1.60;;;0.80;;
19846;SDS011;10084;50.518;8.588;2023-08-31T01:43:24;3.40;;;1.00;;
19846;SDS011;10084;50.518;8.588;2023-08-31T01:45:51;0.93;;;0.87;;
19846;SDS011;10084;50.518;8.588;2023-08-31T01:48:17;1.00;;;0.90;;
19846;SDS011;10084;50.518;8.588;2023-08-31T01:50:43;2.40;;;1.00;;
19846;SDS011;10084;50.518;8.588;2023-08-31T01:53:09;1.40;;;1.00;;
19846;SDS011;10084;50.518;8.588;2023-08-31T01:55:34;3.57;;;1.30;;
19846;SDS011;10084;50.518;8.588;2023-08-31T01:58:00;1.30;;;0.87;;
19846;SDS011;10084;50.518;8.588;2023-08-31T02:00:27;5.83;;;0.70;;
19846;SDS011;10084;50.518;8.588;2023-08-31T02:02:55;1.33;;;0.73;;
19846;SDS011;10084;50.518;8.588;2023-08-31T02:05:21;3.73;;;1.47;;
19846;SDS011;10084;50.518;8.588;2023-08-31T02:07:46;3.10;;;1.20;;
19846;SDS011;10084;50.518;8.588;2023-08-31T02:10:12;1.47;;;1.37;;
19846;SDS011;10084;50.518;8.588;2023-08-31T02:12:37;1.37;;;1.00;;
19846;SDS011;10084;50.518;8.588;2023-08-31T02:15:06;0.83;;;0.77;;
19846;SDS011;10084;50.518;8.588;2023-08-31T02:17:36;1.03;;;0.70;;
19846;SDS011;10084;50.518;8.588;2023-08-31T02:20:02;1.10;;;0.93;;
19846;SDS011;10084;50.518;8.588;2023-08-31T02:22:30;1.87;;;0.80;;
19846;SDS011;10084;50.518;8.588;2023-08-31T02:24:56;0.67;;;0.67;;
19846;SDS011;10084;50.518;8.588;2023-08-31T02:27:22;1.00;;;0.90;;
19846;SDS011;10084;50.518;8.588;2023-08-31T02:29:48;1.20;;;0.60;;
19846;SDS011;10084;50.518;8.588;2023-08-31T02:32:14;1.00;;;0.70;;
19846;SDS011;10084;50.518;8.588;2023-08-31T02:34:39;0.80;;;0.80;;
19846;SDS011;10084;50.518;8.588;2023-08-31T02:37:05;1.10;;;0.70;;
19846;SDS011;10084;50.518;8.588;2023-08-31T02:39:31;0.47;;;0.47;;
19846;SDS011;10084;50.518;8.588;2023-08-31T02:41:57;1.27;;;1.13;;
19846;SDS011;10084;50.518;8.588;2023-08-31T02:44:23;9.30;;;0.70;;
19846;SDS011;10084;50.518;8.588;2023-08-31T02:46:48;0.73;;;0.73;;
19846;SDS011;10084;50.518;8.588;2023-08-31T02:49:14;0.60;;;0.60;;
19846;SDS011;10084;50.518;8.588;2023-08-31T02:51:40;0.50;;;0.50;;
19846;SDS011;10084;50.518;8.588;2023-08-31T02:54:06;0.80;;;0.57;;
19846;SDS011;10084;50.518;8.588;2023-08-31T02:56:32;0.40;;;0.40;;
19846;SDS011;10084;50.518;8.588;2023-08-31T02:58:58;0.60;;;0.50;;
19846;SDS011;10084;50.518;8.588;2023-08-31T03:01:23;1.17;;;0.80;;
19846;SDS011;10084;50.518;8.588;2023-08-31T03:03:50;1.40;;;1.10;;
19846;SDS011;10084;50.518;8.588;2023-08-31T03:06:17;0.80;;;0.80;;
19846;SDS011;10084;50.518;8.588;2023-08-31T03:08:43;0.53;;;0.53;;
19846;SDS011;10084;50.518;8.588;2023-08-31T03:11:09;0.90;;;0.77;;
19846;SDS011;10084;50.518;8.588;2023-08-31T03:13:35;0.80;;;0.80;;
19846;SDS011;10084;50.518;8.588;2023-08-31T03:16:01;0.80;;;0.73;;
19846;SDS011;10084;50.518;8.588;2023-08-31T03:18:28;1.00;;;1.00;;
19846;SDS011;10084;50.518;8.588;2023-08-31T03:20:54;0.77;;;0.60;;
19846;SDS011;10084;50.518;8.588;2023-08-31T03:23:20;2.23;;;0.53;;
19846;SDS011;10084;50.518;8.588;2023-08-31T03:25:46;0.97;;;0.87;;
19846;SDS011;10084;50.518;8.588;2023-08-31T03:28:12;2.20;;;0.80;;
19846;SDS011;10084;50.518;8.588;2023-08-31T03:30:38;0.53;;;0.53;;
19846;SDS011;10084;50.518;8.588;2023-08-31T03:33:04;1.13;;;1.03;;
19846;SDS011;10084;50.518;8.588;2023-08-31T03:35:31;2.67;;;1.23;;
19846;SDS011;10084;50.518;8.588;2023-08-31T03:37:58;0.63;;;0.63;;
19846;SDS011;10084;50.518;8.588;2023-08-31T03:40:26;0.93;;;0.93;;
19846;SDS011;10084;50.518;8.588;2023-08-31T03:42:52;1.10;;;1.00;;
19846;SDS011;10084;50.518;8.588;2023-08-31T03:45:19;2.83;;;0.90;;
19846;SDS011;10084;50.518;8.588;2023-08-31T03:47:45;1.53;;;1.20;;
19846;SDS011;10084;50.518;8.588;2023-08-31T03:50:11;1.27;;;0.80;;
19846;SDS011;10084;50.518;8.588;2023-08-31T03:52:37;1.47;;;1.07;;
19846;SDS011;10084;50.518;8.588;2023-08-31T03:55:03;1.23;;;1.10;;
19846;SDS011;10084;50.518;8.588;2023-08-31T03:57:29;0.93;;;0.80;;
19846;SDS011;10084;50.518;8.588;2023-08-31T04:00:00;0.90;;;0.90;;
19846;SDS011;10084;50.518;8.588;2023-08-31T04:02:28;0.77;;;0.77;;
19846;SDS011;10084;50.518;8.588;2023-08-31T04:04:57;0.73;;;0.73;;
19846;SDS011;10084;50.518;8.588;2023-08-31T04:07:23;1.57;;;1.00;;
19846;SDS011;10084;50.518;8.588;2023-08-31T04:09:49;1.00;;;0.90;;
19846;SDS011;10084;50.518;8.588;2023-08-31T04:12:15;1.47;;;1.10;;
19846;SDS011;10084;50.518;8.588;2023-08-31T04:14:40;0.80;;;0.80;;
19846;SDS011;10084;50.518;8.588;2023-08-31T04:17:06;1.77;;;0.97;;
19846;SDS011;10084;50.518;8.588;2023-08-31T04:19:32;1.53;;;1.37;;
19846;SDS011;10084;50.518;8.588;2023-08-31T04:21:57;1.17;;;1.00;;
19846;SDS011;10084;50.518;8.588;2023-08-31T04:24:23;1.27;;;0.90;;
19846;SDS011;10084;50.518;8.588;2023-08-31T04:26:49;1.33;;;1.07;;
19846;SDS011;10084;50.518;8.588;2023-08-31T04:29:16;5.93;;;0.83;;
19846;SDS011;10084;50.518;8.588;2023-08-31T04:31:42;1.07;;;0.97;;
19846;SDS011;10084;50.518;8.588;2023-08-31T04:34:07;1.20;;;1.10;;
19846;SDS011;10084;50.518;8.588;2023-08-31T04:36:33;1.33;;;1.20;;
19846;SDS011;10084;50.518;8.588;2023-08-31T04:38:59;1.33;;;1.23;;
19846;SDS011;10084;50.518;8.588;2023-08-31T04:41:24;2.33;;;1.10;;
19846;SDS011;10084;50.518;8.588;2023-08-31T04:43:50;3.90;;;1.00;;
19846;SDS011;10084;50.518;8.588;2023-08-31T04:46:16;1.10;;;1.00;;
19846;SDS011;10084;50.518;8.588;2023-08-31T04:48:42;1.47;;;1.37;;
19846;SDS011;10084;50.518;8.588;2023-08-31T04:51:09;1.40;;;0.97;;
19846;SDS011;10084;50.518;8.588;2023-08-31T04:53:53;3.93;;;1.00;;
19846;SDS011;10084;50.518;8.588;2023-08-31T04:56:18;1.87;;;0.87;;
19846;SDS011;10084;50.518;8.588;2023-08-31T04:58:44;2.33;;;1.50;;
19846;SDS011;10084;50.518;8.588;2023-08-31T05:01:10;1.20;;;0.90;;
19846;SDS011;10084;50.518;8.588;2023-08-31T05:03:36;2.60;;;1.10;;
19846;SDS011;10084;50.518;8.588;2023-08-31T05:06:02;1.43;;;0.90;;
19846;SDS011;10084;50.518;8.588;2023-08-31T05:08:30;0.90;;;0.90;;
19846;SDS011;10084;50.518;8.588;2023-08-31T05:10:55;2.53;;;1.13;;
19846;SDS011;10084;50.518;8.588;2023-08-31T05:13:21;6.93;;;1.13;;
19846;SDS011;10084;50.518;8.588;2023-08-31T05:15:47;1.80;;;1.10;;
19846;SDS011;10084;50.518;8.588;2023-08-31T05:18:12;1.23;;;0.97;;
19846;SDS011;10084;50.518;8.588;2023-08-31T05:20:38;1.27;;;1.00;;
19846;SDS011;10084;50.518;8.588;2023-08-31T05:23:04;2.13;;;1.30;;
19846;SDS011;10084;50.518;8.588;2023-08-31T05:25:29;4.67;;;1.37;;
19846;SDS011;10084;50.518;8.588;2023-08-31T05:27:55;2.07;;;1.33;;
19846;SDS011;10084;50.518;8.588;2023-08-31T05:30:21;1.33;;;1.23;;
19846;SDS011;10084;50.518;8.588;2023-08-31T05:32:46;1.07;;;0.90;;
19846;SDS011;10084;50.518;8.588;2023-08-31T05:35:12;1.50;;;1.10;;
19846;SDS011;10084;50.518;8.588;2023-08-31T05:37:38;1.47;;;1.37;;
19846;SDS011;10084;50.518;8.588;2023-08-31T05:40:03;1.33;;;1.20;;
19846;SDS011;10084;50.518;8.588;2023-08-31T05:42:35;1.57;;;1.40;;
19846;SDS011;10084;50.518;8.588;2023-08-31T05:45:01;1.30;;;1.17;;
19846;SDS011;10084;50.518;8.588;2023-08-31T05:47:28;3.27;;;1.50;;
19846;SDS011;10084;50.518;8.588;2023-08-31T05:49:54;1.67;;;1.23;;
19846;SDS011;10084;50.518;8.588;2023-08-31T05:52:20;0.90;;;0.80;;
19846;SDS011;10084;50.518;8.588;2023-08-31T05:54:46;16.97;;;1.30;;
19846;SDS011;10084;50.518;8.588;2023-08-31T05:57:12;0.90;;;0.90;;
19846;SDS011;10084;50.518;8.588;2023-08-31T05:59:38;1.13;;;0.80;;
19846;SDS011;10084;50.518;8.588;2023-08-31T06:02:04;3.57;;;1.37;;
19846;SDS011;10084;50.518;8.588;2023-08-31T06:04:30;0.90;;;0.87;;
19846;SDS011;10084;50.518;8.588;2023-08-31T06:06:56;9.37;;;1.63;;
19846;SDS011;10084;50.518;8.588;2023-08-31T06:09:23;3.13;;;1.03;;
19846;SDS011;10084;50.518;8.588;2023-08-31T06:11:49;3.13;;;0.60;;
19846;SDS011;10084;50.518;8.588;2023-08-31T06:14:14;0.70;;;0.70;;
19846;SDS011;10084;50.518;8.588;2023-08-31T06:16:40;0.73;;;0.67;;
19846;SDS011;10084;50.518;8.588;2023-08-31T06:19:06;0.93;;;0.93;;
19846;SDS011;10084;50.518;8.588;2023-08-31T06:21:31;0.70;;;0.70;;
19846;SDS011;10084;50.518;8.588;2023-08-31T06:23:57;2.43;;;0.90;;
19846;SDS011;10084;50.518;8.588;2023-08-31T06:26:23;1.00;;;0.83;;
19846;SDS011;10084;50.518;8.588;2023-08-31T06:28:48;1.03;;;0.60;;
19846;SDS011;10084;50.518;8.588;2023-08-31T06:31:15;2.23;;;0.70;;
19846;SDS011;10084;50.518;8.588;2023-08-31T06:33:41;0.70;;;0.70;;
19846;SDS011;10084;50.518;8.588;2023-08-31T06:36:07;3.07;;;0.57;;
19846;SDS011;10084;50.518;8.588;2023-08-31T06:38:32;1.83;;;0.70;;
19846;SDS011;10084;50.518;8.588;2023-08-31T06:40:59;0.83;;;0.60;;
19846;SDS011;10084;50.518;8.588;2023-08-31T06:43:27;1.63;;;0.93;;
19846;SDS011;10084;50.518;8.588;2023-08-31T06:45:53;0.80;;;0.57;;
19846;SDS011;10084;50.518;8.588;2023-08-31T06:48:19;1.10;;;0.70;;
19846;SDS011;10084;50.518;8.588;2023-08-31T06:50:44;1.47;;;0.83;;
19846;SDS011;10084;50.518;8.588;2023-08-31T06:53:11;0.53;;;0.53;;
19846;SDS011;10084;50.518;8.588;2023-08-31T06:55:37;6.90;;;0.80;;
19846;SDS011;10084;50.518;8.588;2023-08-31T06:58:03;4.60;;;0.57;;
19846;SDS011;10084;50.518;8.588;2023-08-31T07:00:30;1.50;;;0.67;;
19846;SDS011;10084;50.518;8.588;2023-08-31T07:02:57;0.60;;;0.50;;
19846;SDS011;10084;50.518;8.588;2023-08-31T07:05:24;3.90;;;0.80;;
19846;SDS011;10084;50.518;8.588;2023-08-31T07:07:54;2.13;;;0.60;;
19846;SDS011;10084;50.518;8.588;2023-08-31T07:10:20;0.73;;;0.73;;
19846;SDS011;10084;50.518;8.588;2023-08-31T07:12:47;1.80;;;0.53;;
19846;SDS011;10084;50.518;8.588;2023-08-31T07:15:12;0.60;;;0.60;;
19846;SDS011;10084;50.518;8.588;2023-08-31T07:17:38;0.30;;;0.30;;
19846;SDS011;10084;50.518;8.588;2023-08-31T07:20:04;0.60;;;0.40;;
19846;SDS011;10084;50.518;8.588;2023-08-31T07:22:34;0.60;;;0.43;;
19846;SDS011;10084;50.518;8.588;2023-08-31T07:25:00;1.83;;;0.47;;
19846;SDS011;10084;50.518;8.588;2023-08-31T07:27:26;3.97;;;0.50;;
19846;SDS011;10084;50.518;8.588;2023-08-31T07:29:54;3.30;;;0.70;;
19846;SDS011;10084;50.518;8.588;2023-08-31T07:32:20;0.83;;;0.57;;
19846;SDS011;10084;50.518;8.588;2023-08-31T07:34:46;12.27;;;0.60;;
19846;SDS011;10084;50.518;8.588;2023-08-31T07:37:11;0.57;;;0.50;;
19846;SDS011;10084;50.518;8.588;2023-08-31T07:39:37;0.53;;;0.40;;
19846;SDS011;10084;50.518;8.588;2023-08-31T07:42:04;0.50;;;0.40;;
19846;SDS011;10084;50.518;8.588;2023-08-31T07:44:30;1.00;;;0.70;;
19846;SDS011;10084;50.518;8.588;2023-08-31T07:46:56;1.07;;;0.60;;
19846;SDS011;10084;50.518;8.588;2023-08-31T07:49:22;0.40;;;0.30;;
19846;SDS011;10084;50.518;8.588;2023-08-31T07:51:47;0.37;;;0.37;;
19846;SDS011;10084;50.518;8.588;2023-08-31T07:54:22;0.53;;;0.40;;
19846;SDS011;10084;50.518;8.588;2023-08-31T07:56:48;0.27;;;0.20;;
19846;SDS011;10084;50.518;8.588;2023-08-31T07:59:14;1.80;;;0.50;;
19846;SDS011;10084;50.518;8.588;2023-08-31T08:01:41;0.37;;;0.27;;
19846;SDS011;10084;50.518;8.588;2023-08-31T08:04:06;1.07;;;0.37;;
19846;SDS011;10084;50.518;8.588;2023-08-31T08:06:32;0.53;;;0.50;;
19846;SDS011;10084;50.518;8.588;2023-08-31T08:08:57;0.93;;;0.40;;
19846;SDS011;10084;50.518;8.588;2023-08-31T08:11:23;0.43;;;0.40;;
19846;SDS011;10084;50.518;8.588;2023-08-31T08:13:49;0.53;;;0.40;;
19846;SDS011;10084;50.518;8.588;2023-08-31T08:16:14;7.77;;;0.60;;
19846;SDS011;10084;50.518;8.588;2023-08-31T08:18:40;0.60;;;0.40;;
19846;SDS011;10084;50.518;8.588;2023-08-31T08:21:06;0.57;;;0.57;;
19846;SDS011;10084;50.518;8.588;2023-08-31T08:23:32;0.67;;;0.43;;
19846;SDS011;10084;50.518;8.588;2023-08-31T08:25:58;0.47;;;0.47;;
19846;SDS011;10084;50.518;8.588;2023-08-31T08:28:26;0.30;;;0.20;;
19846;SDS011;10084;50.518;8.588;2023-08-31T08:30:53;0.50;;;0.40;;
19846;SDS011;10084;50.518;8.588;2023-08-31T08:33:20;0.20;;;0.20;;
19846;SDS011;10084;50.518;8.588;2023-08-31T08:35:46;0.50;;;0.30;;
19846;SDS011;10084;50.518;8.588;2023-08-31T08:38:12;0.77;;;0.47;;
19846;SDS011;10084;50.518;8.588;2023-08-31T08:40:37;0.73;;;0.40;;
19846;SDS011;10084;50.518;8.588;2023-08-31T08:43:07;0.53;;;0.40;;
19846;SDS011;10084;50.518;8.588;2023-08-31T08:45:37;3.07;;;0.40;;
19846;SDS011;10084;50.518;8.588;2023-08-31T08:48:05;0.27;;;0.27;;
19846;SDS011;10084;50.518;8.588;2023-08-31T08:50:32;0.40;;;0.30;;
19846;SDS011;10084;50.518;8.588;2023-08-31T08:52:59;2.47;;;0.30;;
19846;SDS011;10084;50.518;8.588;2023-08-31T08:55:29;0.77;;;0.40;;
19846;SDS011;10084;50.518;8.588;2023-08-31T08:57:55;0.97;;;0.47;;
19846;SDS011;10084;50.518;8.588;2023-08-31T09:00:22;1.90;;;0.70;;
19846;SDS011;10084;50.518;8.588;2023-08-31T09:02:48;1.60;;;0.30;;
19846;SDS011;10084;50.518;8.588;2023-08-31T09:05:14;0.50;;;0.30;;
19846;SDS011;10084;50.518;8.588;2023-08-31T09:07:59;4.93;;;0.53;;
19846;SDS011;10084;50.518;8.588;2023-08-31T09:10:33;2.33;;;0.37;;
19846;SDS011;10084;50.518;8.588;2023-08-31T09:13:00;0.70;;;0.37;;
19846;SDS011;10084;50.518;8.588;2023-08-31T09:15:26;2.63;;;0.50;;
19846;SDS011;10084;50.518;8.588;2023-08-31T09:18:05;1.83;;;0.33;;
19846;SDS011;10084;50.518;8.588;2023-08-31T09:20:31;0.57;;;0.37;;
19846;SDS011;10084;50.518;8.588;2023-08-31T09:22:57;0.70;;;0.30;;
19846;SDS011;10084;50.518;8.588;2023-08-31T09:25:23;0.90;;;0.30;;
19846;SDS011;10084;50.518;8.588;2023-08-31T09:27:49;1.20;;;0.50;;
19846;SDS011;10084;50.518;8.588;2023-08-31T09:30:15;4.70;;;0.57;;
19846;SDS011;10084;50.518;8.588;2023-08-31T09:32:41;3.70;;;0.40;;
19846;SDS011;10084;50.518;8.588;2023-08-31T09:35:09;0.73;;;0.33;;
19846;SDS011;10084;50.518;8.588;2023-08-31T09:37:35;0.63;;;0.43;;
19846;SDS011;10084;50.518;8.588;2023-08-31T09:40:03;1.13;;;0.30;;
19846;SDS011;10084;50.518;8.588;2023-08-31T09:42:36;0.53;;;0.40;;
19846;SDS011;10084;50.518;8.588;2023-08-31T09:45:04;1.73;;;0.43;;
19846;SDS011;10084;50.518;8.588;2023-08-31T09:47:30;0.70;;;0.30;;
19846;SDS011;10084;50.518;8.588;2023-08-31T09:49:56;0.33;;;0.20;;
19846;SDS011;10084;50.518;8.588;2023-08-31T09:52:24;0.33;;;0.30;;
19846;SDS011;10084;50.518;8.588;2023-08-31T09:54:50;0.60;;;0.20;;
19846;SDS011;10084;50.518;8.588;2023-08-31T09:57:18;0.40;;;0.30;;
19846;SDS011;10084;50.518;8.588;2023-08-31T09:59:45;0.73;;;0.30;;
19846;SDS011;10084;50.518;8.588;2023-08-31T10:02:12;0.93;;;0.40;;
19846;SDS011;10084;50.518;8.588;2023-08-31T10:04:38;5.37;;;0.37;;
19846;SDS011;10084;50.518;8.588;2023-08-31T10:07:05;0.27;;;0.20;;
19846;SDS011;10084;50.518;8.588;2023-08-31T10:09:35;1.40;;;0.40;;
19846;SDS011;10084;50.518;8.588;2023-08-31T10:12:02;0.77;;;0.37;;
19846;SDS011;10084;50.518;8.588;2023-08-31T10:14:30;0.70;;;0.30;;
19846;SDS011;10084;50.518;8.588;2023-08-31T10:16:56;0.83;;;0.30;;
19846;SDS011;10084;50.518;8.588;2023-08-31T10:19:23;0.63;;;0.27;;
19846;SDS011;10084;50.518;8.588;2023-08-31T10:21:49;1.90;;;0.30;;
19846;SDS011;10084;50.518;8.588;2023-08-31T10:24:15;1.13;;;0.43;;
19846;SDS011;10084;50.518;8.588;2023-08-31T10:26:40;0.87;;;0.23;;
19846;SDS011;10084;50.518;8.588;2023-08-31T10:29:06;0.47;;;0.30;;
19846;SDS011;10084;50.518;8.588;2023-08-31T10:31:50;6.67;;;0.30;;
19846;SDS011;10084;50.518;8.588;2023-08-31T10:34:15;1.70;;;0.40;;
19846;SDS011;10084;50.518;8.588;2023-08-31T10:36:43;0.67;;;0.30;;
19846;SDS011;10084;50.518;8.588;2023-08-31T10:41:53;1.90;;;0.30;;
19846;SDS011;10084;50.518;8.588;2023-08-31T10:44:26;0.40;;;0.30;;
19846;SDS011;10084;50.518;8.588;2023-08-31T10:46:53;2.70;;;0.30;;
19846;SDS011;10084;50.518;8.588;2023-08-31T10:49:20;3.70;;;0.33;;
19846;SDS011;10084;50.518;8.588;2023-08-31T10:51:57;2.87;;;0.30;;
19846;SDS011;10084;50.518;8.588;2023-08-31T10:54:42;1.90;;;0.30;;
19846;SDS011;10084;50.518;8.588;2023-08-31T10:57:08;0.30;;;0.30;;
19846;SDS011;10084;50.518;8.588;2023-08-31T10:59:44;0.67;;;0.30;;
19846;SDS011;10084;50.518;8.588;2023-08-31T11:02:28;4.23;;;0.30;;
19846;SDS011;10084;50.518;8.588;2023-08-31T11:07:30;0.20;;;0.20;;
19846;SDS011;10084;50.518;8.588;2023-08-31T11:10:13;4.30;;;0.30;;
19846;SDS011;10084;50.518;8.588;2023-08-31T11:12:43;0.57;;;0.20;;
19846;SDS011;10084;50.518;8.588;2023-08-31T11:15:15;0.53;;;0.20;;
19846;SDS011;10084;50.518;8.588;2023-08-31T11:17:45;0.83;;;0.40;;
19846;SDS011;10084;50.518;8.588;2023-08-31T11:20:34;0.40;;;0.40;;
19846;SDS011;10084;50.518;8.588;2023-08-31T11:23:01;1.03;;;0.40;;
19846;SDS011;10084;50.518;8.588;2023-08-31T11:25:30;0.30;;;0.20;;
19846;SDS011;10084;50.518;8.588;2023-08-31T11:27:57;0.70;;;0.30;;
19846;SDS011;10084;50.518;8.588;2023-08-31T11:30:24;0.60;;;0.37;;
19846;SDS011;10084;50.518;8.588;2023-08-31T11:32:51;0.20;;;0.20;;
19846;SDS011;10084;50.518;8.588;2023-08-31T11:35:18;0.30;;;0.30;;
19846;SDS011;10084;50.518;8.588;2023-08-31T11:37:45;0.40;;;0.30;;
19846;SDS011;10084;50.518;8.588;2023-08-31T11:40:14;0.40;;;0.30;;
19846;SDS011;10084;50.518;8.588;2023-08-31T11:42:40;0.80;;;0.23;;
19846;SDS011;10084;50.518;8.588;2023-08-31T11:45:06;0.67;;;0.30;;
19846;SDS011;10084;50.518;8.588;2023-08-31T11:47:34;0.87;;;0.10;;
19846;SDS011;10084;50.518;8.588;2023-08-31T11:50:01;1.60;;;0.20;;
19846;SDS011;10084;50.518;8.588;2023-08-31T11:52:32;0.80;;;0.30;;
19846;SDS011;10084;50.518;8.588;2023-08-31T11:54:58;0.20;;;0.20;;
19846;SDS011;10084;50.518;8.588;2023-08-31T11:57:25;2.60;;;0.40;;
19846;SDS011;10084;50.518;8.588;2023-08-31T11:59:51;2.10;;;0.43;;
19846;SDS011;10084;50.518;8.588;2023-08-31T12:02:20;0.80;;;0.30;;
19846;SDS011;10084;50.518;8.588;2023-08-31T12:04:46;0.30;;;0.30;;
19846;SDS011;10084;50.518;8.588;2023-08-31T12:07:16;2.00;;;0.47;;
19846;SDS011;10084;50.518;8.588;2023-08-31T12:09:43;2.40;;;0.40;;
19846;SDS011;10084;50.518;8.588;2023-08-31T12:12:15;0.70;;;0.30;;
19846;SDS011;10084;50.518;8.588;2023-08-31T12:14:46;2.47;;;0.30;;
19846;SDS011;10084;50.518;8.588;2023-08-31T12:17:11;0.20;;;0.20;;
19846;SDS011;10084;50.518;8.588;2023-08-31T12:19:37;0.37;;;0.27;;
19846;SDS011;10084;50.518;8.588;2023-08-31T12:22:07;0.40;;;0.30;;
19846;SDS011;10084;50.518;8.588;2023-08-31T12:24:41;0.97;;;0.40;;
19846;SDS011;10084;50.518;8.588;2023-08-31T12:27:07;0.63;;;0.30;;
19846;SDS011;10084;50.518;8.588;2023-08-31T12:29:33;0.27;;;0.20;;
19846;SDS011;10084;50.518;8.588;2023-08-31T12:32:01;1.90;;;0.20;;
19846;SDS011;10084;50.518;8.588;2023-08-31T12:34:28;1.57;;;0.60;;
19846;SDS011;10084;50.518;8.588;2023-08-31T12:36:56;3.87;;;0.13;;
19846;SDS011;10084;50.518;8.588;2023-08-31T12:39:24;0.60;;;0.20;;
19846;SDS011;10084;50.518;8.588;2023-08-31T12:41:50;2.30;;;0.30;;
19846;SDS011;10084;50.518;8.588;2023-08-31T12:44:16;1.23;;;0.23;;
19846;SDS011;10084;50.518;8.588;2023-08-31T12:46:42;2.43;;;0.40;;
19846;SDS011;10084;50.518;8.588;2023-08-31T12:49:07;1.73;;;0.43;;
19846;SDS011;10084;50.518;8.588;2023-08-31T12:51:33;1.07;;;0.40;;
19846;SDS011;10084;50.518;8.588;2023-08-31T12:53:58;0.67;;;0.20;;
19846;SDS011;10084;50.518;8.588;2023-08-31T12:56:24;1.33;;;0.37;;
19846;SDS011;10084;50.518;8.588;2023-08-31T12:58:50;0.10;;;0.10;;
19846;SDS011;10084;50.518;8.588;2023-08-31T13:01:17;4.10;;;0.20;;
19846;SDS011;10084;50.518;8.588;2023-08-31T13:03:44;3.27;;;0.30;;
19846;SDS011;10084;50.518;8.588;2023-08-31T13:06:10;0.30;;;0.30;;
19846;SDS011;10084;50.518;8.588;2023-08-31T13:08:36;0.53;;;0.20;;
19846;SDS011;10084;50.518;8.588;2023-08-31T13:11:02;0.67;;;0.30;;
19846;SDS011;10084;50.518;8.588;2023-08-31T13:13:30;0.30;;;0.30;;
19846;SDS011;10084;50.518;8.588;2023-08-31T13:15:56;0.73;;;0.30;;
19846;SDS011;10084;50.518;8.588;2023-08-31T13:18:22;1.00;;;0.40;;
19846;SDS011;10084;50.518;8.588;2023-08-31T13:20:51;0.30;;;0.30;;
19846;SDS011;10084;50.518;8.588;2023-08-31T13:23:18;0.30;;;0.20;;
19846;SDS011;10084;50.518;8.588;2023-08-31T13:25:44;4.67;;;0.33;;
19846;SDS011;10084;50.518;8.588;2023-08-31T13:28:10;1.33;;;0.17;;
19846;SDS011;10084;50.518;8.588;2023-08-31T13:30:38;0.53;;;0.30;;
19846;SDS011;10084;50.518;8.588;2023-08-31T13:33:04;1.47;;;0.40;;
19846;SDS011;10084;50.518;8.588;2023-08-31T13:35:30;1.73;;;0.70;;
19846;SDS011;10084;50.518;8.588;2023-08-31T13:37:56;2.00;;;0.20;;
19846;SDS011;10084;50.518;8.588;2023-08-31T13:40:22;2.67;;;0.20;;
19846;SDS011;10084;50.518;8.588;2023-08-31T13:42:57;0.30;;;0.30;;
19846;SDS011;10084;50.518;8.588;2023-08-31T13:45:28;3.73;;;0.30;;
19846;SDS011;10084;50.518;8.588;2023-08-31T13:47:55;0.93;;;0.30;;
19846;SDS011;10084;50.518;8.588;2023-08-31T13:50:22;0.67;;;0.33;;
19846;SDS011;10084;50.518;8.588;2023-08-31T13:52:48;4.33;;;0.63;;
19846;SDS011;10084;50.518;8.588;2023-08-31T13:55:14;0.23;;;0.23;;
19846;SDS011;10084;50.518;8.588;2023-08-31T13:57:41;0.43;;;0.27;;
19846;SDS011;10084;50.518;8.588;2023-08-31T14:00:08;5.87;;;0.30;;
19846;SDS011;10084;50.518;8.588;2023-08-31T14:02:35;0.70;;;0.20;;
19846;SDS011;10084;50.518;8.588;2023-08-31T14:05:06;1.33;;;0.63;;
19846;SDS011;10084;50.518;8.588;2023-08-31T14:07:34;0.40;;;0.33;;
19846;SDS011;10084;50.518;8.588;2023-08-31T14:10:00;0.83;;;0.40;;
19846;SDS011;10084;50.518;8.588;2023-08-31T14:12:26;2.10;;;0.30;;
19846;SDS011;10084;50.518;8.588;2023-08-31T14:14:52;2.40;;;0.50;;
19846;SDS011;10084;50.518;8.588;2023-08-31T14:17:18;0.10;;;0.10;;
19846;SDS011;10084;50.518;8.588;2023-08-31T14:19:44;0.30;;;0.10;;
19846;SDS011;10084;50.518;8.588;2023-08-31T14:22:10;1.70;;;0.37;;
19846;SDS011;10084;50.518;8.588;2023-08-31T14:24:37;0.50;;;0.27;;
19846;SDS011;10084;50.518;8.588;2023-08-31T14:27:03;0.53;;;0.30;;
19846;SDS011;10084;50.518;8.588;2023-08-31T14:29:29;0.30;;;0.30;;
19846;SDS011;10084;50.518;8.588;2023-08-31T14:31:55;0.53;;;0.33;;
19846;SDS011;10084;50.518;8.588;2023-08-31T14:34:21;0.30;;;0.20;;
19846;SDS011;10084;50.518;8.588;2023-08-31T14:36:47;0.50;;;0.50;;
19846;SDS011;10084;50.518;8.588;2023-08-31T14:39:13;0.40;;;0.23;;
19846;SDS011;10084;50.518;8.588;2023-08-31T14:41:40;0.93;;;0.40;;
19846;SDS011;10084;50.518;8.588;2023-08-31T14:44:06;3.30;;;0.60;;
19846;SDS011;10084;50.518;8.588;2023-08-31T14:46:32;0.73;;;0.30;;
19846;SDS011;10084;50.518;8.588;2023-08-31T14:48:57;0.60;;;0.60;;
19846;SDS011;10084;50.518;8.588;2023-08-31T14:51:23;0.50;;;0.37;;
19846;SDS011;10084;50.518;8.588;2023-08-31T14:53:49;0.83;;;0.53;;
19846;SDS011;10084;50.518;8.588;2023-08-31T14:56:15;0.60;;;0.30;;
19846;SDS011;10084;50.518;8.588;2023-08-31T14:58:40;3.83;;;1.37;;
19846;SDS011;10084;50.518;8.588;2023-08-31T15:01:06;1.13;;;0.87;;
19846;SDS011;10084;50.518;8.588;2023-08-31T15:03:32;0.20;;;0.20;;
19846;SDS011;10084;50.518;8.588;2023-08-31T15:05:58;0.30;;;0.23;;